Cibolo — WDI7436 — position and weather

sailwx.info

Track history (hours):
 
Tides and Currents Weather Stations Pressure Air Temp Water Temp Dewpoint Dewpoint Depression Visibility Wind Speed Wind Dir Waves Ship Positions

Cibolo

Owner: Kirby Inland Marine LP, Houston, TX. More information available from US FCC via Universal Licensing System and Coast Guard Vessel Documentation Center.

Last reported at 2017-Sep-22 02:00 UTC. Time now 2017-Oct-20 17:48 UTC.
Position N 29°48' W 092°16'.
Warning: this ship's position is 28 days out of date.

Length 103 m; draft 3 m.

Type: . MMSI: 367728710.

Date/timePositionNaut miles runAvg speedWind from/ knotsBaromVisibWave heightAir tempDewpointWater temp
2017-Sep-22 02:00N 29°48' W 092°16'47 7.0
2017-Sep-21 19:12N 29°56' W 093°10'1 7.0
2017-Sep-21 19:00N 29°57' W 093°11'3 6.8
2017-Sep-21 18:30N 29°60' W 093°13'3 5.8
2017-Sep-21 18:01N 30°02' W 093°15'3 6.5
2017-Sep-21 17:31N 30°05' W 093°17'1 2.1
2017-Sep-21 17:00N 30°06' W 093°18'0 0.0
2017-Sep-21 16:24N 30°06' W 093°18'0 0.0
2017-Sep-21 16:01N 30°06' W 093°18'0 0.0
2017-Sep-21 15:30N 30°06' W 093°18'2 3.2
2017-Sep-21 15:01N 30°05' W 093°20'3 6.0
2017-Sep-21 14:31N 30°04' W 093°23'4 7.6
2017-Sep-21 14:01N 30°04' W 093°27'6 0.2
2017-Sep-20 12:11N 30°04' W 093°35'1 6.4
2017-Sep-20 12:00N 30°04' W 093°33'3 6.2
2017-Sep-20 11:30N 30°04' W 093°30'3 6.2
2017-Sep-20 11:01N 30°04' W 093°26'3 6.3
2017-Sep-20 10:31N 30°04' W 093°22'3 5.2
2017-Sep-20 10:01N 30°05' W 093°20'2 4.6
2017-Sep-20 09:31N 30°05' W 093°17'1 2.2
2017-Sep-20 09:01N 30°04' W 093°16'1 2.8
2017-Sep-20 08:30N 30°03' W 093°16'3 5.7
2017-Sep-20 08:00N 30°01' W 093°14'50 5.6
2017-Sep-19 22:58N 29°49' W 092°17'3 7.0
2017-Sep-19 22:31N 29°48' W 092°14'3 6.4
2017-Sep-19 22:01N 29°47' W 092°11'67 5.9
2017-Sep-19 10:44N 29°34' W 090°55'2 7.0
2017-Sep-19 10:30N 29°33' W 090°54'3 6.6
2017-Sep-19 10:00N 29°32' W 090°50'3 6.5
2017-Sep-19 09:30N 29°32' W 090°46'3 5.6
2017-Sep-19 09:00N 29°34' W 090°44'2 4.5
2017-Sep-19 08:31N 29°36' W 090°43'1 2.3
2017-Sep-19 08:01N 29°37' W 090°42'0 0.0
2017-Sep-19 07:30N 29°37' W 090°42'0 0.0
2017-Sep-19 07:00N 29°37' W 090°42'0 0.1
2017-Sep-19 06:30N 29°37' W 090°42'2 3.1
2017-Sep-19 06:00N 29°36' W 090°40'3 6.1
2017-Sep-19 05:30N 29°35' W 090°37'3 5.8
2017-Sep-19 04:58N 29°34' W 090°33'  
Track history (hours):
 
Tides and Currents Weather Stations Pressure Air Temp Water Temp Dewpoint Dewpoint Depression Visibility Wind Speed Wind Dir Waves Ship Positions

Cibolo

Owner: Kirby Inland Marine LP, Houston, TX. More information available from US FCC via Universal Licensing System and Coast Guard Vessel Documentation Center.

Last reported at 2017-Sep-22 02:00 UTC. Time now 2017-Oct-20 17:48 UTC.
Position N 29°48' W 092°16'.
Warning: this ship's position is 28 days out of date.

Length 103 m; draft 3 m.

Type: . MMSI: 367728710.

Date/timePositionNaut miles runAvg speedWind from/ knotsBaromVisibWave heightAir tempDewpointWater temp
2017-Sep-22 02:00N 29°48' W 092°16'47 7.0
2017-Sep-21 19:12N 29°56' W 093°10'1 7.0
2017-Sep-21 19:00N 29°57' W 093°11'3 6.8
2017-Sep-21 18:30N 29°60' W 093°13'3 5.8
2017-Sep-21 18:01N 30°02' W 093°15'3 6.5
2017-Sep-21 17:31N 30°05' W 093°17'1 2.1
2017-Sep-21 17:00N 30°06' W 093°18'0 0.0
2017-Sep-21 16:24N 30°06' W 093°18'0 0.0
2017-Sep-21 16:01N 30°06' W 093°18'0 0.0
2017-Sep-21 15:30N 30°06' W 093°18'2 3.2
2017-Sep-21 15:01N 30°05' W 093°20'3 6.0
2017-Sep-21 14:31N 30°04' W 093°23'4 7.6
2017-Sep-21 14:01N 30°04' W 093°27'6 0.2
2017-Sep-20 12:11N 30°04' W 093°35'1 6.4
2017-Sep-20 12:00N 30°04' W 093°33'3 6.2
2017-Sep-20 11:30N 30°04' W 093°30'3 6.2
2017-Sep-20 11:01N 30°04' W 093°26'3 6.3
2017-Sep-20 10:31N 30°04' W 093°22'3 5.2
2017-Sep-20 10:01N 30°05' W 093°20'2 4.6
2017-Sep-20 09:31N 30°05' W 093°17'1 2.2
2017-Sep-20 09:01N 30°04' W 093°16'1 2.8
2017-Sep-20 08:30N 30°03' W 093°16'3 5.7
2017-Sep-20 08:00N 30°01' W 093°14'50 5.6
2017-Sep-19 22:58N 29°49' W 092°17'3 7.0
2017-Sep-19 22:31N 29°48' W 092°14'3 6.4
2017-Sep-19 22:01N 29°47' W 092°11'67 5.9
2017-Sep-19 10:44N 29°34' W 090°55'2 7.0
2017-Sep-19 10:30N 29°33' W 090°54'3 6.6
2017-Sep-19 10:00N 29°32' W 090°50'3 6.5
2017-Sep-19 09:30N 29°32' W 090°46'3 5.6
2017-Sep-19 09:00N 29°34' W 090°44'2 4.5
2017-Sep-19 08:31N 29°36' W 090°43'1 2.3
2017-Sep-19 08:01N 29°37' W 090°42'0 0.0
2017-Sep-19 07:30N 29°37' W 090°42'0 0.0
2017-Sep-19 07:00N 29°37' W 090°42'0 0.1
2017-Sep-19 06:30N 29°37' W 090°42'2 3.1
2017-Sep-19 06:00N 29°36' W 090°40'3 6.1
2017-Sep-19 05:30N 29°35' W 090°37'3 5.8
2017-Sep-19 04:58N 29°34' W 090°33'  

Dump ship's entire track history